createdAt,value
2023-01-07T00:00:18.154Z,100811.20
2023-01-07T00:03:11.515Z,100811.02
2023-01-07T00:05:43.405Z,100814.08
2023-01-07T00:08:15.168Z,100815.71
2023-01-07T00:10:46.889Z,100813.91
2023-01-07T00:13:19.143Z,100816.05
2023-01-07T00:15:51.109Z,100813.91
2023-01-07T00:18:22.867Z,100814.09
2023-01-07T00:20:57.071Z,100806.35
2023-01-07T00:23:29.624Z,100802.59
2023-01-07T00:26:05.668Z,100804.24
2023-01-07T00:28:39.374Z,100805.34
2023-01-07T00:31:13.775Z,100807.85
2023-01-07T00:33:52.052Z,100805.50
2023-01-07T00:36:26.119Z,100803.88
2023-01-07T00:38:59.135Z,100804.07
2023-01-07T00:41:30.926Z,100806.01
2023-01-07T00:44:03.111Z,100807.13
2023-01-07T00:46:35.450Z,100807.30
2023-01-07T00:49:07.241Z,100806.40
2023-01-07T00:51:38.928Z,100804.33
2023-01-07T00:54:11.056Z,100807.43
2023-01-07T00:56:43.250Z,100813.38
2023-01-07T00:59:15.451Z,100811.69
2023-01-07T01:01:46.772Z,100812.60
2023-01-07T01:04:19.435Z,100817.23
2023-01-07T01:06:49.806Z,100818.11
2023-01-07T01:09:22.338Z,100821.01
2023-01-07T01:11:54.102Z,100820.85
2023-01-07T01:14:26.151Z,100822.64
2023-01-07T01:16:58.072Z,100829.44
2023-01-07T01:19:30.040Z,100822.95
2023-01-07T01:22:01.874Z,100827.81
2023-01-07T01:24:34.030Z,100831.09
2023-01-07T01:27:06.896Z,100829.30
2023-01-07T01:29:38.835Z,100830.02
2023-01-07T01:32:11.142Z,100833.77
2023-01-07T01:34:43.823Z,100839.38
2023-01-07T01:37:15.777Z,100832.54
2023-01-07T01:39:47.649Z,100820.84
2023-01-07T01:42:22.357Z,100813.54
2023-01-07T01:44:56.528Z,100817.33
2023-01-07T01:47:39.743Z,100813.73
2023-01-07T01:50:24.078Z,100810.46
2023-01-07T01:53:01.974Z,100812.98
2023-01-07T01:55:38.674Z,100816.41
2023-01-07T01:58:17.987Z,100828.30
2023-01-07T02:00:50.003Z,100838.52
2023-01-07T02:03:25.402Z,100841.02
2023-01-07T02:05:57.271Z,100837.06
2023-01-07T02:08:29.541Z,100839.58
2023-01-07T02:11:17.196Z,100835.61
2023-01-07T02:14:09.055Z,100839.75
2023-01-07T02:16:49.168Z,100834.93
2023-01-07T02:19:47.829Z,100826.33
2023-01-07T02:22:39.541Z,100827.92
2023-01-07T02:25:35.125Z,100827.90
2023-01-07T02:28:29.600Z,100823.59
2023-01-07T02:31:29.200Z,100821.81
2023-01-07T02:34:06.196Z,100820.16
2023-01-07T02:36:51.006Z,100812.98
2023-01-07T02:39:37.905Z,100819.46
2023-01-07T02:42:21.211Z,100816.05
2023-01-07T02:45:00.933Z,100812.09
2023-01-07T02:47:38.663Z,100815.15
2023-01-07T02:50:12.081Z,100815.35
2023-01-07T02:52:44.061Z,100817.49
2023-01-07T02:55:19.382Z,100820.00
2023-01-07T02:58:24.432Z,100824.15
2023-01-07T03:01:26.441Z,100826.30
2023-01-07T03:04:18.342Z,100828.27
2023-01-07T03:07:06.703Z,100833.30
2023-01-07T03:09:48.854Z,100835.27
2023-01-07T03:12:28.085Z,100833.16
2023-01-07T03:15:05.864Z,100838.89
2023-01-07T03:17:43.096Z,100835.30
2023-01-07T03:20:18.165Z,100837.27
2023-01-07T03:22:51.181Z,100837.87
2023-01-07T03:25:25.280Z,100835.17
2023-01-07T03:28:00.917Z,100833.92
2023-01-07T03:30:34.400Z,100838.08
2023-01-07T03:33:13.494Z,100836.46
2023-01-07T03:35:50.160Z,100840.94
2023-01-07T03:38:23.960Z,100837.54
2023-01-07T03:40:58.378Z,100833.76
2023-01-07T03:43:30.350Z,100833.21
2023-01-07T03:46:02.750Z,100840.20
2023-01-07T03:48:34.515Z,100841.08
2023-01-07T03:51:06.665Z,100834.23
2023-01-07T03:53:38.475Z,100829.00
2023-01-07T03:56:10.452Z,100827.93
2023-01-07T03:58:42.257Z,100818.98
2023-01-07T04:01:14.721Z,100815.55
2023-01-07T04:03:46.691Z,100811.95
2023-01-07T04:06:17.898Z,100809.08
2023-01-07T04:08:49.648Z,100812.30
2023-01-07T04:11:22.046Z,100809.96
2023-01-07T04:13:54.146Z,100808.71
2023-01-07T04:16:25.958Z,100807.28
2023-01-07T04:18:57.958Z,100808.71
2023-01-07T04:21:30.015Z,100811.41
2023-01-07T04:24:02.057Z,100814.13
2023-01-07T04:26:33.891Z,100817.70
2023-01-07T04:29:05.767Z,100817.19
2023-01-07T04:31:37.967Z,100815.59
2023-01-07T04:34:10.226Z,100811.46
2023-01-07T04:36:42.149Z,100810.52
2023-01-07T04:39:14.620Z,100812.16
2023-01-07T04:41:48.041Z,100809.61
2023-01-07T04:44:20.732Z,100809.59
2023-01-07T04:46:52.832Z,100806.19
2023-01-07T04:49:24.988Z,100809.42
2023-01-07T04:51:57.395Z,100808.16
2023-01-07T04:54:29.675Z,100807.05
2023-01-07T04:57:02.050Z,100804.73
2023-01-07T04:59:34.257Z,100803.45
2023-01-07T05:02:06.570Z,100790.85
2023-01-07T05:04:38.384Z,100795.33
2023-01-07T05:07:10.770Z,100800.56
2023-01-07T05:09:42.673Z,100803.30
2023-01-07T05:12:14.920Z,100802.72
2023-01-07T05:14:47.099Z,100810.66
2023-01-07T05:17:19.091Z,100803.81
2023-01-07T05:19:53.071Z,100806.17
2023-01-07T05:22:25.089Z,100802.04
2023-01-07T05:24:57.882Z,100806.15
2023-01-07T05:27:29.079Z,100803.81
2023-01-07T05:30:01.341Z,100799.83
2023-01-07T05:32:33.313Z,100807.02
2023-01-07T05:35:04.557Z,100806.45
2023-01-07T05:37:36.576Z,100815.65
2023-01-07T05:40:12.160Z,100812.14
2023-01-07T05:42:44.748Z,100813.19
2023-01-07T05:45:17.085Z,100811.55
2023-01-07T05:47:49.383Z,100815.19
2023-01-07T05:50:21.676Z,100813.02
2023-01-07T05:52:55.035Z,100817.89
2023-01-07T05:55:26.750Z,100814.29
2023-01-07T05:57:58.563Z,100816.59
2023-01-07T06:00:30.267Z,100819.29
2023-01-07T06:03:02.071Z,100824.69
2023-01-07T06:05:33.813Z,100827.54
2023-01-07T06:08:06.011Z,100831.70
2023-01-07T06:10:37.952Z,100831.38
2023-01-07T06:13:09.910Z,100827.98
2023-01-07T06:15:41.689Z,100827.95
2023-01-07T06:18:13.632Z,100832.23
2023-01-07T06:20:45.743Z,100834.94
2023-01-07T06:23:17.935Z,100835.47
2023-01-07T06:25:49.705Z,100840.49
2023-01-07T06:28:22.003Z,100838.71
2023-01-07T06:30:55.012Z,100839.78
2023-01-07T06:33:26.710Z,100840.34
2023-01-07T06:35:58.446Z,100843.92
2023-01-07T06:38:30.170Z,100852.35
2023-01-07T06:41:02.514Z,100847.50
2023-01-07T06:43:34.726Z,100842.30
2023-01-07T06:46:06.914Z,100831.89
2023-01-07T06:48:38.708Z,100836.02
2023-01-07T06:51:10.698Z,100836.02
2023-01-07T06:53:42.583Z,100842.88
2023-01-07T06:56:14.390Z,100843.23
2023-01-07T06:58:46.174Z,100844.86
2023-01-07T07:01:18.588Z,100857.05
2023-01-07T07:03:50.473Z,100857.41
2023-01-07T07:06:22.198Z,100856.35
2023-01-07T07:08:53.895Z,100856.34
2023-01-07T07:11:25.589Z,100853.83
2023-01-07T07:13:59.777Z,100845.58
2023-01-07T07:16:32.756Z,100855.27
2023-01-07T07:19:04.802Z,100858.70
2023-01-07T07:21:36.927Z,100863.19
2023-01-07T07:24:09.387Z,100858.36
2023-01-07T07:26:41.074Z,100849.93
2023-01-07T07:29:13.104Z,100849.02
2023-01-07T07:31:44.929Z,100849.19
2023-01-07T07:34:16.851Z,100854.75
2023-01-07T07:36:48.599Z,100849.55
2023-01-07T07:39:20.539Z,100863.01
2023-01-07T07:41:52.222Z,100862.11
2023-01-07T07:44:24.393Z,100863.56
2023-01-07T07:46:56.150Z,100865.34
2023-01-07T07:49:27.977Z,100863.90
2023-01-07T07:51:59.933Z,100864.45
2023-01-07T07:54:31.763Z,100860.50
2023-01-07T07:57:03.920Z,100865.52
2023-01-07T07:59:36.143Z,100873.41
2023-01-07T08:02:10.134Z,100874.67
2023-01-07T08:04:42.111Z,100875.03
2023-01-07T08:07:14.105Z,100868.40
2023-01-07T08:10:04.800Z,100863.90
2023-01-07T08:12:39.512Z,100861.73
2023-01-07T08:15:12.716Z,100861.38
2023-01-07T08:17:44.737Z,100860.48
2023-01-07T08:20:16.557Z,100857.95
2023-01-07T08:22:48.506Z,100857.59
2023-01-07T08:25:21.134Z,100853.98
2023-01-07T08:27:52.984Z,100851.65
2023-01-07T08:30:25.304Z,100839.96
2023-01-07T08:32:57.544Z,100825.59
2023-01-07T08:35:29.576Z,100820.39
2023-01-07T08:38:06.034Z,100821.65
2023-01-07T08:40:39.208Z,100816.61
2023-01-07T08:43:12.341Z,100820.02
2023-01-07T08:45:48.957Z,100815.34
2023-01-07T08:48:21.502Z,100813.54
2023-01-07T08:50:55.025Z,100811.02
2023-01-07T08:53:27.001Z,100807.98
2023-01-07T08:55:59.122Z,100809.04
2023-01-07T08:58:31.467Z,100812.44
2023-01-07T09:01:05.772Z,100820.14
2023-01-07T09:03:37.806Z,100825.88
2023-01-07T09:06:10.351Z,100824.43
2023-01-07T09:08:42.179Z,100827.49
2023-01-07T09:11:14.231Z,100829.46
2023-01-07T09:13:46.490Z,100831.25
2023-01-07T09:16:18.550Z,100831.27
2023-01-07T09:18:50.719Z,100831.25
2023-01-07T09:21:22.790Z,100829.27
2023-01-07T09:23:55.631Z,100827.10
2023-01-07T09:26:28.280Z,100825.52
2023-01-07T09:29:00.185Z,100827.65
2023-01-07T09:31:32.440Z,100827.98
2023-01-07T09:34:04.429Z,100830.85
2023-01-07T09:36:36.174Z,100830.49
2023-01-07T09:39:07.996Z,100832.45
2023-01-07T09:41:52.249Z,100837.27
2023-01-07T09:44:34.914Z,100833.16
2023-01-07T09:47:07.577Z,100828.12
2023-01-07T09:49:41.093Z,100830.81
2023-01-07T09:52:19.002Z,100828.62
2023-01-07T09:55:06.762Z,100824.30
2023-01-07T09:57:38.625Z,100821.95
2023-01-07T10:00:21.941Z,100824.30
2023-01-07T10:02:57.437Z,100822.35
2023-01-07T10:05:37.818Z,100820.23
2023-01-07T10:08:29.753Z,100817.64
2023-01-07T10:11:19.277Z,100819.20
2023-01-07T10:14:10.946Z,100820.35
2023-01-07T10:16:50.222Z,100814.02
2023-01-07T10:19:28.112Z,100807.93
2023-01-07T10:22:02.528Z,100812.95
2023-01-07T10:24:39.138Z,100813.63
2023-01-07T10:27:15.194Z,100805.87
2023-01-07T10:29:50.900Z,100806.02
2023-01-07T10:32:25.445Z,100801.65
2023-01-07T10:35:00.262Z,100799.70
2023-01-07T10:37:35.139Z,100796.27
2023-01-07T10:40:26.472Z,100797.52
2023-01-07T10:43:08.436Z,100799.32
2023-01-07T10:46:16.242Z,100801.09
2023-01-07T10:49:08.375Z,100797.67
2023-01-07T10:52:01.167Z,100799.09
2023-01-07T10:54:56.796Z,100797.65
2023-01-07T10:57:32.425Z,100794.95
2023-01-07T11:00:09.664Z,100786.31
2023-01-07T11:02:47.531Z,100788.41
2023-01-07T11:05:21.246Z,100783.20
2023-01-07T11:07:57.738Z,100779.23
2023-01-07T11:10:34.229Z,100774.21
2023-01-07T11:13:13.827Z,100769.52
2023-01-07T11:15:50.013Z,100762.82
2023-01-07T11:18:25.948Z,100758.65
2023-01-07T11:20:59.214Z,100750.35
2023-01-07T11:23:34.986Z,100750.66
2023-01-07T11:26:17.113Z,100749.35
2023-01-07T11:28:54.623Z,100748.95
2023-01-07T11:31:46.945Z,100743.30
2023-01-07T11:34:28.030Z,100743.07
2023-01-07T11:36:59.883Z,100729.82
2023-01-07T11:39:34.296Z,100730.69
2023-01-07T11:42:36.291Z,100727.79
2023-01-07T11:45:16.418Z,100725.04
2023-01-07T11:47:58.912Z,100719.55
2023-01-07T11:50:35.117Z,100718.33
2023-01-07T11:53:24.786Z,100722.94
2023-01-07T11:56:02.374Z,100715.17
2023-01-07T11:58:39.300Z,100714.05
2023-01-07T12:01:21.907Z,100711.70
2023-01-07T12:04:20.099Z,100705.42
2023-01-07T12:06:54.702Z,100708.44
2023-01-07T12:09:29.363Z,100703.38
2023-01-07T12:12:28.976Z,100705.85
2023-01-07T12:15:02.263Z,100703.13
2023-01-07T12:17:36.638Z,100699.14
2023-01-07T12:20:40.882Z,100696.23
2023-01-07T12:23:25.400Z,100688.92
2023-01-07T12:26:05.091Z,100689.42
2023-01-07T12:28:50.928Z,100685.25
2023-01-07T12:31:37.254Z,100679.67
2023-01-07T12:34:20.667Z,100679.29
2023-01-07T12:37:00.732Z,100679.96
2023-01-07T12:39:36.681Z,100677.04
2023-01-07T12:42:15.828Z,100673.39
2023-01-07T12:44:52.354Z,100671.33
2023-01-07T12:47:32.287Z,100666.59
2023-01-07T12:50:13.061Z,100663.11
2023-01-07T12:52:50.842Z,100664.48
2023-01-07T12:55:29.143Z,100659.76
2023-01-07T12:58:12.762Z,100658.54
2023-01-07T13:00:50.356Z,100654.23
2023-01-07T13:03:33.634Z,100655.49
2023-01-07T13:06:11.217Z,100656.94
2023-01-07T13:08:48.359Z,100659.13
2023-01-07T13:11:47.200Z,100656.77
2023-01-07T13:14:24.861Z,100661.13
2023-01-07T13:17:13.539Z,100655.41
2023-01-07T13:19:45.352Z,100654.98
2023-01-07T13:22:24.823Z,100654.46
2023-01-07T13:25:12.439Z,100656.27
2023-01-07T13:28:03.177Z,100654.44
2023-01-07T13:30:47.445Z,100651.67
2023-01-07T13:33:24.063Z,100653.61
2023-01-07T13:36:15.843Z,100655.27
2023-01-07T13:39:14.704Z,100653.11
2023-01-07T13:42:00.313Z,100659.58
2023-01-07T13:45:10.933Z,100661.18
2023-01-07T13:47:47.312Z,100657.38
2023-01-07T13:50:26.832Z,100651.42
2023-01-07T13:53:01.063Z,100653.50
2023-01-07T13:55:41.328Z,100650.42
2023-01-07T13:58:44.683Z,100650.22
2023-01-07T14:01:18.107Z,100645.66
2023-01-07T14:03:51.655Z,100641.69
2023-01-07T14:06:41.729Z,100638.53
2023-01-07T14:09:28.088Z,100636.45
2023-01-07T14:12:45.317Z,100637.19
2023-01-07T14:15:38.385Z,100639.59
2023-01-07T14:18:32.267Z,100639.49
2023-01-07T14:21:18.690Z,100637.82
2023-01-07T14:24:03.212Z,100638.52
2023-01-07T14:26:40.332Z,100634.82
2023-01-07T14:29:26.927Z,100634.87
2023-01-07T14:32:30.031Z,100629.57
2023-01-07T14:35:07.900Z,100632.97
2023-01-07T14:37:42.307Z,100637.02
2023-01-07T14:41:00.466Z,100638.65
2023-01-07T14:44:05.943Z,100638.99
2023-01-07T14:46:51.351Z,100631.61
2023-01-07T14:49:44.925Z,100630.47
2023-01-07T14:52:47.571Z,100626.48
2023-01-07T14:55:58.707Z,100624.58
2023-01-07T14:58:45.828Z,100619.92
2023-01-07T15:01:41.166Z,100618.89
2023-01-07T15:05:07.639Z,100623.86
2023-01-07T15:07:43.387Z,100620.60
2023-01-07T15:10:39.630Z,100618.40
2023-01-07T15:13:42.647Z,100616.94
2023-01-07T15:16:16.081Z,100615.02
2023-01-07T15:18:50.831Z,100614.38
2023-01-07T15:21:35.546Z,100618.53
2023-01-07T15:24:15.734Z,100617.86
2023-01-07T15:26:56.229Z,100620.85
2023-01-07T15:29:36.694Z,100620.79
2023-01-07T15:32:15.221Z,100618.61
2023-01-07T15:34:47.986Z,100613.80
2023-01-07T15:37:20.714Z,100618.71
2023-01-07T15:39:56.162Z,100614.36
2023-01-07T15:42:32.766Z,100611.52
2023-01-07T15:45:05.633Z,100614.80
2023-01-07T15:47:41.293Z,100610.39
2023-01-07T15:50:31.762Z,100607.32
2023-01-07T15:53:18.033Z,100608.76
2023-01-07T15:55:57.117Z,100610.50
2023-01-07T15:58:37.006Z,100611.73
2023-01-07T16:01:16.531Z,100605.81
2023-01-07T16:03:51.229Z,100609.77
2023-01-07T16:06:33.523Z,100606.67
2023-01-07T16:09:18.656Z,100609.05
2023-01-07T16:11:51.118Z,100605.79
2023-01-07T16:14:24.996Z,100598.73
2023-01-07T16:17:16.419Z,100598.59
2023-01-07T16:19:48.297Z,100601.28
2023-01-07T16:22:22.801Z,100598.21
2023-01-07T16:24:55.707Z,100597.65
2023-01-07T16:27:31.587Z,100599.05
2023-01-07T16:30:04.094Z,100595.28
2023-01-07T16:32:36.238Z,100602.52
2023-01-07T16:35:11.250Z,100595.57
2023-01-07T16:37:44.027Z,100595.20
2023-01-07T16:40:24.629Z,100594.89
2023-01-07T16:42:57.415Z,100595.77
2023-01-07T16:45:29.179Z,100593.20
2023-01-07T16:48:20.222Z,100593.11
2023-01-07T16:50:55.560Z,100588.94
2023-01-07T16:53:31.015Z,100587.50
2023-01-07T16:56:18.357Z,100583.00
2023-01-07T16:58:55.433Z,100583.41
2023-01-07T17:01:35.815Z,100579.21
2023-01-07T17:04:17.317Z,100577.61
2023-01-07T17:06:49.978Z,100574.92
2023-01-07T17:09:27.382Z,100575.55
2023-01-07T17:11:59.399Z,100573.13
2023-01-07T17:14:51.772Z,100572.41
2023-01-07T17:17:34.771Z,100571.25
2023-01-07T17:20:15.224Z,100574.57
2023-01-07T17:22:49.476Z,100573.04
2023-01-07T17:25:28.387Z,100571.89
2023-01-07T17:28:07.604Z,100573.71
2023-01-07T17:30:41.563Z,100575.13
2023-01-07T17:33:18.183Z,100570.25
2023-01-07T17:35:50.115Z,100568.36
2023-01-07T17:38:22.543Z,100575.50
2023-01-07T17:40:54.425Z,100569.15
2023-01-07T17:43:38.121Z,100568.24
2023-01-07T17:46:13.683Z,100565.09
2023-01-07T17:48:46.255Z,100563.88
2023-01-07T17:51:18.555Z,100561.53
2023-01-07T17:53:52.721Z,100563.44
2023-01-07T17:56:25.062Z,100564.39
2023-01-07T17:58:57.282Z,100566.46
2023-01-07T18:01:29.747Z,100564.95
2023-01-07T18:04:01.773Z,100561.59
2023-01-07T18:06:35.136Z,100564.84
2023-01-07T18:09:08.956Z,100566.35
2023-01-07T18:12:02.204Z,100564.73
2023-01-07T18:14:34.346Z,100561.82
2023-01-07T18:17:07.478Z,100562.26
2023-01-07T18:19:40.036Z,100558.95
2023-01-07T18:22:12.060Z,100558.45
2023-01-07T18:24:44.253Z,100552.84
2023-01-07T18:27:18.193Z,100553.41
2023-01-07T18:29:50.151Z,100551.61
2023-01-07T18:32:22.431Z,100550.77
2023-01-07T18:34:54.466Z,100560.63
2023-01-07T18:37:26.676Z,100559.35
2023-01-07T18:40:02.191Z,100559.75
2023-01-07T18:42:34.980Z,100561.98
2023-01-07T18:45:08.911Z,100554.05
2023-01-07T18:47:43.158Z,100555.52
2023-01-07T18:50:16.337Z,100551.55
2023-01-07T18:52:48.162Z,100544.84
2023-01-07T18:55:21.224Z,100548.30
2023-01-07T18:57:51.619Z,100545.81
2023-01-07T19:00:24.032Z,100543.67
2023-01-07T19:02:58.207Z,100544.77
2023-01-07T19:05:30.959Z,100546.59
2023-01-07T19:08:03.394Z,100547.76
2023-01-07T19:10:35.837Z,100549.14
2023-01-07T19:13:08.005Z,100548.00
2023-01-07T19:15:43.068Z,100541.16
2023-01-07T19:18:15.416Z,100538.45
2023-01-07T19:20:47.425Z,100534.88
2023-01-07T19:23:19.589Z,100541.30
2023-01-07T19:26:01.214Z,100537.28
2023-01-07T19:28:33.305Z,100536.55
2023-01-07T19:31:08.939Z,100534.22
2023-01-07T19:33:41.405Z,100532.73
2023-01-07T19:36:17.558Z,100534.80
2023-01-07T19:38:50.239Z,100535.41
2023-01-07T19:41:21.142Z,100533.42
2023-01-07T19:43:59.120Z,100530.27
2023-01-07T19:46:34.352Z,100528.36
2023-01-07T19:49:09.047Z,100529.23
2023-01-07T19:51:43.045Z,100526.54
2023-01-07T19:54:17.117Z,100519.52
2023-01-07T19:56:49.339Z,100522.55
2023-01-07T19:59:22.716Z,100520.45
2023-01-07T20:01:55.082Z,100521.58
2023-01-07T20:04:28.471Z,100515.96
2023-01-07T20:07:00.661Z,100518.79
2023-01-07T20:09:33.566Z,100512.67
2023-01-07T20:12:07.394Z,100506.83
2023-01-07T20:14:40.270Z,100504.79
2023-01-07T20:17:12.619Z,100502.30
2023-01-07T20:19:45.486Z,100501.80
2023-01-07T20:22:15.936Z,100497.14
2023-01-07T20:24:47.993Z,100493.16
2023-01-07T20:27:19.916Z,100489.23
2023-01-07T20:29:51.669Z,100484.09
2023-01-07T20:32:23.599Z,100482.98
2023-01-07T20:34:55.356Z,100484.30
2023-01-07T20:37:28.136Z,100483.34
2023-01-07T20:40:00.221Z,100480.96
2023-01-07T20:42:32.972Z,100471.41
2023-01-07T20:45:05.326Z,100472.89
2023-01-07T20:47:38.376Z,100470.51
2023-01-07T20:50:10.920Z,100474.23
2023-01-07T20:52:42.983Z,100476.73
2023-01-07T20:55:14.803Z,100478.55
2023-01-07T20:57:46.572Z,100482.46
2023-01-07T21:00:19.432Z,100477.79
2023-01-07T21:02:51.309Z,100479.45
2023-01-07T21:05:24.761Z,100475.20
2023-01-07T21:07:59.229Z,100472.02
2023-01-07T21:10:31.599Z,100471.83
2023-01-07T21:13:04.584Z,100468.88
2023-01-07T21:15:38.498Z,100461.59
2023-01-07T21:18:11.025Z,100460.30
2023-01-07T21:20:44.785Z,100450.61
2023-01-07T21:23:17.251Z,100444.48
2023-01-07T21:25:50.704Z,100441.80
2023-01-07T21:28:23.109Z,100441.64
2023-01-07T21:30:55.623Z,100435.10
2023-01-07T21:33:29.256Z,100431.78
2023-01-07T21:36:01.805Z,100427.63
2023-01-07T21:38:32.297Z,100424.69
2023-01-07T21:41:08.258Z,100423.91
2023-01-07T21:43:41.553Z,100422.04
2023-01-07T21:46:15.434Z,100419.44
2023-01-07T21:48:48.802Z,100417.98
2023-01-07T21:51:22.505Z,100415.73
2023-01-07T21:53:57.781Z,100410.59
2023-01-07T21:56:32.656Z,100406.06
2023-01-07T21:59:05.077Z,100399.55
2023-01-07T22:01:37.118Z,100392.97
2023-01-07T22:04:09.150Z,100387.55
2023-01-07T22:06:41.948Z,100382.60
2023-01-07T22:09:16.653Z,100382.11
2023-01-07T22:11:48.793Z,100381.32
2023-01-07T22:14:23.123Z,100375.52
2023-01-07T22:16:55.708Z,100368.80
2023-01-07T22:19:28.534Z,100361.48
2023-01-07T22:22:01.337Z,100361.50
2023-01-07T22:24:33.259Z,100362.76
2023-01-07T22:27:05.328Z,100363.16
2023-01-07T22:29:38.837Z,100361.69
2023-01-07T22:32:10.630Z,100357.25
2023-01-07T22:34:42.558Z,100353.34
2023-01-07T22:37:18.667Z,100352.84
2023-01-07T22:39:57.022Z,100353.28
2023-01-07T22:42:33.226Z,100352.92
2023-01-07T22:45:09.883Z,100353.91
2023-01-07T22:47:46.634Z,100357.33
2023-01-07T22:50:19.965Z,100353.50
2023-01-07T22:52:52.976Z,100350.35
2023-01-07T22:55:25.276Z,100350.71
2023-01-07T22:57:57.175Z,100340.45
2023-01-07T23:01:10.592Z,100338.85
2023-01-07T23:03:41.304Z,100331.84
2023-01-07T23:06:15.297Z,100325.77
2023-01-07T23:08:47.545Z,100325.70
2023-01-07T23:11:33.222Z,100319.44
2023-01-07T23:14:05.311Z,100319.89
2023-01-07T23:16:39.056Z,100327.24
2023-01-07T23:19:11.195Z,100327.40
2023-01-07T23:21:45.584Z,100322.73
2023-01-07T23:24:17.689Z,100316.34
2023-01-07T23:26:52.508Z,100305.93
2023-01-07T23:29:24.565Z,100303.63
2023-01-07T23:31:56.412Z,100299.23
2023-01-07T23:34:28.797Z,100296.30
2023-01-07T23:37:00.746Z,100290.54
2023-01-07T23:39:32.767Z,100286.96
2023-01-07T23:42:04.525Z,100282.98
2023-01-07T23:44:36.443Z,100279.30
2023-01-07T23:47:08.846Z,100271.40
2023-01-07T23:49:40.792Z,100269.95
2023-01-07T23:52:12.507Z,100270.11
2023-01-07T23:54:44.588Z,100266.70
2023-01-07T23:57:16.585Z,100262.11
2023-01-07T23:59:48.464Z,100261.23
